Time;durP1;ratioP1;P1;durP2;ratioP2;P2;SDS_P1;SDS_P2;PMS_P1;PMS_P2;Temp;Humidity;BMP_temperature;BMP_pressure;BME280_temperature;BME280_humidity;BME280_pressure;Samples;Min_cycle;Max_cycle;Signal;HPM_P1;HPM_P2
2022/05/10 00:00:12;;;;;;;15.23;13.90;;;12.30;99.90;;;;;;5082125;28;20281;-79
2022/05/10 00:02:46;;;;;;;15.63;14.30;;;12.20;99.90;;;;;;5074129;28;20310;-79
2022/05/10 00:05:14;;;;;;;14.60;13.30;;;12.20;99.90;;;;;;5081668;28;20323;-80
2022/05/10 00:07:41;;;;;;;13.73;12.47;;;12.10;99.90;;;;;;5081035;28;20201;-80
2022/05/10 00:10:10;;;;;;;14.73;13.30;;;12.10;99.90;;;;;;5082668;28;20213;-80
2022/05/10 00:12:38;;;;;;;14.33;13.03;;;12.10;99.90;;;;;;5083633;28;20189;-81
2022/05/10 00:15:07;;;;;;;15.57;14.17;;;12.10;99.90;;;;;;5082699;28;20222;-80
2022/05/10 00:17:38;;;;;;;15.13;13.93;;;12.10;99.90;;;;;;5083360;28;20207;-80
2022/05/10 00:20:10;;;;;;;15.57;14.07;;;12.00;99.90;;;;;;5086239;28;20250;-80
2022/05/10 00:22:39;;;;;;;15.67;14.33;;;12.00;99.90;;;;;;5085906;28;20245;-80
2022/05/10 00:25:08;;;;;;;15.60;14.00;;;11.90;99.90;;;;;;5081194;28;20638;-80
2022/05/10 00:27:35;;;;;;;14.50;13.30;;;11.90;99.90;;;;;;5086523;28;20543;-80
2022/05/10 00:30:04;;;;;;;15.67;14.37;;;11.80;99.90;;;;;;5082748;28;20334;-79
2022/05/10 00:32:35;;;;;;;15.57;14.27;;;11.80;99.90;;;;;;5074753;28;20814;-80
2022/05/10 00:35:02;;;;;;;14.83;13.53;;;11.80;99.90;;;;;;5082187;28;20298;-79
2022/05/10 00:37:31;;;;;;;14.13;13.00;;;11.80;99.90;;;;;;5084837;28;20311;-79
2022/05/10 00:39:59;;;;;;;14.13;12.93;;;11.80;99.90;;;;;;5086515;28;20685;-80
2022/05/10 00:42:31;;;;;;;13.80;12.70;;;11.80;99.90;;;;;;5084364;28;20230;-79
2022/05/10 00:45:02;;;;;;;13.73;12.63;;;11.80;99.90;;;;;;5087502;28;20217;-78
2022/05/10 00:47:37;;;;;;;14.17;12.97;;;11.80;99.90;;;;;;5077305;28;20205;-80
2022/05/10 00:50:10;;;;;;;14.17;13.00;;;11.80;99.90;;;;;;5081002;28;20514;-79
2022/05/10 00:52:45;;;;;;;14.00;12.87;;;11.80;99.90;;;;;;5081284;28;20290;-80
2022/05/10 00:55:17;;;;;;;14.63;13.43;;;11.80;99.90;;;;;;5084137;28;20223;-80
2022/05/10 00:57:48;;;;;;;14.30;13.10;;;11.80;99.90;;;;;;5085187;28;20245;-79
2022/05/10 01:00:18;;;;;;;15.10;13.70;;;11.80;99.90;;;;;;5084887;28;20196;-78
2022/05/10 01:02:55;;;;;;;15.10;13.80;;;11.80;99.90;;;;;;5085052;28;20216;-80
2022/05/10 01:05:30;;;;;;;15.07;13.77;;;11.80;99.90;;;;;;5093468;28;20224;-80
2022/05/10 01:08:02;;;;;;;15.10;13.80;;;11.80;99.90;;;;;;5093353;28;20208;-79
2022/05/10 01:10:39;;;;;;;15.13;13.90;;;11.90;99.90;;;;;;5093850;28;20568;-80
2022/05/10 01:13:15;;;;;;;14.63;13.33;;;11.80;99.90;;;;;;5093550;28;20196;-80
2022/05/10 01:15:50;;;;;;;15.93;14.43;;;11.90;99.90;;;;;;5093417;28;20224;-80
2022/05/10 01:18:21;;;;;;;14.73;13.53;;;11.80;99.90;;;;;;5090832;28;20610;-80
2022/05/10 01:20:51;;;;;;;15.30;14.00;;;11.90;99.90;;;;;;5082594;28;20302;-78
2022/05/10 01:23:39;;;;;;;14.77;13.50;;;11.80;99.90;;;;;;5078656;28;20252;-79
2022/05/10 01:26:15;;;;;;;15.83;14.53;;;11.80;99.90;;;;;;5084638;28;20215;-79
2022/05/10 01:28:49;;;;;;;15.23;13.97;;;11.80;99.90;;;;;;5072029;28;20202;-80
2022/05/10 01:31:20;;;;;;;15.93;14.43;;;11.80;99.90;;;;;;5077653;28;20282;-80
2022/05/10 01:33:52;;;;;;;14.97;13.77;;;11.70;99.90;;;;;;5080063;28;20217;-79
2022/05/10 01:36:26;;;;;;;16.43;14.83;;;11.70;99.90;;;;;;5081961;28;20204;-80
2022/05/10 01:39:01;;;;;;;16.40;15.00;;;11.60;99.90;;;;;;5081987;28;20203;-80
2022/05/10 01:41:35;;;;;;;17.77;16.10;;;11.60;99.90;;;;;;5082464;28;20214;-79
2022/05/10 01:44:13;;;;;;;16.63;15.03;;;11.60;99.90;;;;;;5081023;28;20208;-79
2022/05/10 01:46:40;;;;;;;17.87;16.27;;;11.60;99.90;;;;;;5090011;28;20248;-80
2022/05/10 01:49:16;;;;;;;16.03;14.63;;;11.50;99.90;;;;;;5080710;28;20224;-80
2022/05/10 01:51:49;;;;;;;17.33;15.73;;;11.50;99.90;;;;;;5077610;28;20701;-79
2022/05/10 01:54:50;;;;;;;16.07;14.77;;;11.50;99.90;;;;;;5077835;28;20248;-80
2022/05/10 01:57:19;;;;;;;16.47;14.97;;;11.50;99.90;;;;;;5078826;28;20202;-78
2022/05/10 01:59:52;;;;;;;17.13;15.63;;;11.50;99.90;;;;;;5080813;28;20284;-81
2022/05/10 02:02:22;;;;;;;16.70;15.20;;;11.50;99.90;;;;;;5077550;28;20214;-78
2022/05/10 02:04:54;;;;;;;17.27;15.77;;;11.50;99.90;;;;;;5080978;28;20723;-79
2022/05/10 02:07:24;;;;;;;15.60;14.30;;;11.50;99.90;;;;;;5081018;28;20769;-80
2022/05/10 02:10:01;;;;;;;16.27;14.80;;;11.40;99.90;;;;;;5076548;28;20282;-79
2022/05/10 02:12:35;;;;;;;17.23;15.73;;;11.40;99.90;;;;;;5082466;28;20292;-79
2022/05/10 02:15:08;;;;;;;16.37;15.07;;;11.40;99.90;;;;;;5082671;28;20265;-79
2022/05/10 02:17:41;;;;;;;17.43;15.80;;;11.40;99.90;;;;;;5080246;28;20219;-78
2022/05/10 02:20:14;;;;;;;15.97;14.57;;;11.30;99.90;;;;;;5080086;28;20196;-79
2022/05/10 02:22:46;;;;;;;16.97;15.47;;;11.30;99.90;;;;;;5076330;28;20213;-80
2022/05/10 02:25:18;;;;;;;17.20;15.80;;;11.20;99.90;;;;;;5073943;28;20210;-80
2022/05/10 02:27:49;;;;;;;16.10;14.70;;;11.20;99.90;;;;;;5084057;28;20252;-79
2022/05/10 02:30:21;;;;;;;15.60;14.30;;;11.20;99.90;;;;;;5082678;28;20251;-80
2022/05/10 02:33:09;;;;;;;15.57;14.17;;;11.20;99.90;;;;;;5076262;28;20213;-79
2022/05/10 02:35:42;;;;;;;14.47;13.23;;;11.30;99.90;;;;;;5074465;28;20218;-79
2022/05/10 02:38:11;;;;;;;14.17;12.97;;;11.30;99.90;;;;;;5083347;28;20194;-80
2022/05/10 02:40:41;;;;;;;15.30;14.10;;;11.30;99.90;;;;;;5083033;28;20190;-79
2022/05/10 02:43:12;;;;;;;17.97;16.53;;;11.30;99.90;;;;;;5072429;28;20314;-79
2022/05/10 02:45:40;;;;;;;16.50;15.10;;;11.30;99.90;;;;;;5067033;28;20212;-79
2022/05/10 02:48:14;;;;;;;15.87;14.30;;;11.30;99.90;;;;;;5076132;28;20576;-78
2022/05/10 02:50:42;;;;;;;16.57;15.17;;;11.20;99.90;;;;;;5066681;28;20223;-78
2022/05/10 02:53:09;;;;;;;16.33;15.03;;;11.20;99.90;;;;;;5074356;28;20199;-78
2022/05/10 02:55:43;;;;;;;17.07;15.57;;;11.20;99.90;;;;;;5077932;28;20214;-78
2022/05/10 02:58:17;;;;;;;15.77;14.37;;;11.10;99.90;;;;;;5075738;28;20480;-78
2022/05/10 03:00:46;;;;;;;18.47;16.87;;;11.10;99.90;;;;;;5069725;28;20196;-78
2022/05/10 03:03:17;;;;;;;18.83;17.13;;;11.10;99.90;;;;;;5072131;28;20517;-80
2022/05/10 03:05:44;;;;;;;19.20;17.50;;;11.00;99.90;;;;;;5067030;28;20229;-80
2022/05/10 03:08:11;;;;;;;18.63;17.13;;;11.00;99.90;;;;;;5075692;28;20250;-79
2022/05/10 03:10:38;;;;;;;18.00;16.50;;;10.90;99.90;;;;;;5073484;28;20216;-81
2022/05/10 03:13:05;;;;;;;18.23;16.63;;;10.90;99.90;;;;;;5062884;28;20260;-82
2022/05/10 03:15:33;;;;;;;18.63;16.97;;;10.80;99.90;;;;;;5077211;28;20228;-79
2022/05/10 03:18:01;;;;;;;18.53;16.83;;;10.70;99.90;;;;;;5078955;28;20718;-78
2022/05/10 03:20:28;;;;;;;19.07;17.27;;;10.70;99.90;;;;;;5081157;28;20578;-77
2022/05/10 03:22:55;;;;;;;17.97;16.37;;;10.60;99.90;;;;;;5079041;28;20204;-80
2022/05/10 03:25:23;;;;;;;18.97;17.17;;;10.60;99.90;;;;;;5080538;28;20302;-78
2022/05/10 03:27:50;;;;;;;18.97;17.17;;;10.60;99.90;;;;;;5078738;28;20196;-79
2022/05/10 03:30:18;;;;;;;18.47;16.87;;;10.60;99.90;;;;;;5079328;28;20382;-82
2022/05/10 03:32:45;;;;;;;18.70;17.17;;;10.60;99.90;;;;;;5074634;28;20698;-80
2022/05/10 03:35:16;;;;;;;20.43;18.27;;;10.50;99.90;;;;;;5081286;28;20312;-79
2022/05/10 03:37:43;;;;;;;18.63;17.10;;;10.50;99.90;;;;;;5076800;28;20222;-81
2022/05/10 03:40:12;;;;;;;18.70;17.03;;;10.40;99.90;;;;;;5074747;28;20206;-79
2022/05/10 03:42:44;;;;;;;20.27;18.33;;;10.40;99.90;;;;;;5073608;28;20269;-81
2022/05/10 03:45:13;;;;;;;19.60;18.00;;;10.40;99.90;;;;;;5081686;28;20244;-80
2022/05/10 03:47:40;;;;;;;19.43;17.73;;;10.50;99.90;;;;;;5079719;28;20218;-79
2022/05/10 03:50:09;;;;;;;18.83;17.23;;;10.50;99.90;;;;;;5078967;28;20200;-79
2022/05/10 03:52:38;;;;;;;17.60;16.17;;;10.50;99.90;;;;;;5080476;28;20200;-79
2022/05/10 03:55:07;;;;;;;19.93;18.13;;;10.50;99.90;;;;;;5078062;28;20228;-80
2022/05/10 03:57:34;;;;;;;18.73;16.90;;;10.50;99.90;;;;;;5079068;28;20289;-80
2022/05/10 04:00:01;;;;;;;17.40;15.90;;;10.40;99.90;;;;;;5080484;28;20225;-80
2022/05/10 04:02:28;;;;;;;17.93;16.37;;;10.40;99.90;;;;;;5082031;28;20630;-80
2022/05/10 04:04:55;;;;;;;17.37;15.77;;;10.50;99.90;;;;;;5076772;28;20237;-79
2022/05/10 04:07:22;;;;;;;17.33;15.73;;;10.50;99.90;;;;;;5078507;28;20293;-79
2022/05/10 04:09:50;;;;;;;17.13;15.47;;;10.50;99.90;;;;;;5078453;28;20202;-79
2022/05/10 04:12:17;;;;;;;17.87;16.27;;;10.60;99.90;;;;;;5079430;28;20629;-80
2022/05/10 04:14:45;;;;;;;19.10;17.50;;;10.60;99.90;;;;;;5080127;28;20276;-79
2022/05/10 04:17:11;;;;;;;19.50;17.70;;;10.60;99.90;;;;;;5079559;28;20203;-79
2022/05/10 04:19:38;;;;;;;18.10;16.63;;;10.60;99.90;;;;;;5074239;28;20194;-79
2022/05/10 04:22:05;;;;;;;19.07;17.13;;;10.60;99.90;;;;;;5081569;28;20206;-81
2022/05/10 04:24:32;;;;;;;18.87;17.17;;;10.60;99.90;;;;;;5071851;28;20271;-79
2022/05/10 04:27:01;;;;;;;17.77;16.17;;;10.70;99.90;;;;;;5077180;28;20191;-79
2022/05/10 04:29:28;;;;;;;17.27;15.67;;;10.70;99.90;;;;;;5078922;28;20201;-80
2022/05/10 04:31:55;;;;;;;17.90;16.30;;;10.80;99.90;;;;;;5077943;28;20201;-80
2022/05/10 04:34:22;;;;;;;17.77;16.17;;;10.90;99.90;;;;;;5079900;28;20228;-79
2022/05/10 04:36:49;;;;;;;18.03;16.43;;;11.00;99.90;;;;;;5079943;28;20201;-79
2022/05/10 04:39:16;;;;;;;19.03;17.43;;;11.10;99.90;;;;;;5080608;28;20325;-80
2022/05/10 04:41:44;;;;;;;16.60;15.20;;;11.20;99.90;;;;;;5075946;28;20664;-79
2022/05/10 04:44:13;;;;;;;16.63;15.23;;;11.30;99.90;;;;;;5073314;28;20222;-79
2022/05/10 04:46:41;;;;;;;18.17;16.53;;;11.50;99.90;;;;;;5081814;28;20219;-80
2022/05/10 04:49:10;;;;;;;17.47;15.87;;;11.70;99.90;;;;;;5076873;28;20304;-80
2022/05/10 04:51:38;;;;;;;16.73;15.37;;;11.80;99.90;;;;;;5069681;28;20234;-80
2022/05/10 04:54:06;;;;;;;17.77;16.27;;;12.00;99.90;;;;;;5077658;28;20629;-80
2022/05/10 04:56:33;;;;;;;13.20;11.90;;;12.20;99.90;;;;;;5078189;28;20282;-80
2022/05/10 04:59:00;;;;;;;17.77;16.20;;;12.40;99.90;;;;;;5083259;28;20201;-80
2022/05/10 05:01:31;;;;;;;14.80;13.40;;;12.50;99.90;;;;;;5079453;28;20209;-81
2022/05/10 05:04:01;;;;;;;16.63;15.30;;;12.70;99.90;;;;;;5085161;28;20225;-80
2022/05/10 05:06:28;;;;;;;12.57;11.07;;;12.90;99.90;;;;;;5076656;28;20225;-80
2022/05/10 05:08:56;;;;;;;12.80;11.00;;;13.10;99.90;;;;;;5079113;28;20291;-81
2022/05/10 05:11:23;;;;;;;12.07;10.90;;;13.30;99.90;;;;;;5081843;28;20637;-80
2022/05/10 05:13:50;;;;;;;12.50;11.30;;;13.60;99.90;;;;;;5081443;28;20220;-80
2022/05/10 05:16:17;;;;;;;11.57;10.47;;;13.80;99.90;;;;;;5082427;28;20202;-80
2022/05/10 05:18:46;;;;;;;11.13;10.03;;;14.00;99.90;;;;;;5083645;28;20205;-80
2022/05/10 05:21:13;;;;;;;12.47;11.37;;;14.20;99.90;;;;;;5082622;28;20688;-80
2022/05/10 05:23:40;;;;;;;16.10;14.80;;;14.50;99.90;;;;;;5076900;28;20251;-80
2022/05/10 05:26:07;;;;;;;17.90;16.60;;;14.70;99.90;;;;;;5084599;28;20200;-81
2022/05/10 05:28:34;;;;;;;15.97;14.67;;;15.00;99.90;;;;;;5079963;28;20199;-81
2022/05/10 05:31:02;;;;;;;16.70;15.20;;;15.40;99.90;;;;;;5080500;28;20227;-81
2022/05/10 05:33:30;;;;;;;16.00;14.70;;;15.70;99.90;;;;;;5083735;28;20225;-81
2022/05/10 05:35:58;;;;;;;13.50;12.20;;;16.00;99.90;;;;;;5081884;28;20697;-81
2022/05/10 05:38:26;;;;;;;12.27;11.10;;;16.40;99.90;;;;;;5081743;28;20241;-81
2022/05/10 05:40:53;;;;;;;12.70;11.50;;;16.70;99.90;;;;;;5080642;28;20233;-81
2022/05/10 05:43:22;;;;;;;11.83;10.73;;;17.10;99.90;;;;;;5082851;28;20316;-81
2022/05/10 05:45:49;;;;;;;13.03;11.93;;;17.70;99.90;;;;;;5078880;28;20221;-81
2022/05/10 05:48:17;;;;;;;10.90;9.90;;;17.90;99.90;;;;;;5077274;28;20203;-81
2022/05/10 05:50:44;;;;;;;13.17;12.00;;;17.90;99.90;;;;;;5083835;28;20278;-81
2022/05/10 05:53:13;;;;;;;11.93;10.93;;;17.90;99.90;;;;;;5073391;28;20200;-81
2022/05/10 05:55:42;;;;;;;13.07;11.97;;;17.80;99.90;;;;;;5082641;28;21780;-80
2022/05/10 05:58:10;;;;;;;11.10;9.43;;;17.60;99.90;;;;;;5080644;28;20203;-81
2022/05/10 06:00:38;;;;;;;8.93;8.03;;;17.50;99.90;;;;;;5079985;28;20672;-81
2022/05/10 06:03:06;;;;;;;11.73;10.70;;;17.30;99.90;;;;;;5088196;28;20747;-82
2022/05/10 06:05:32;;;;;;;12.03;11.03;;;17.20;99.90;;;;;;5080556;28;20269;-82
2022/05/10 06:08:00;;;;;;;9.97;9.13;;;17.20;99.90;;;;;;5074344;28;20204;-81
2022/05/10 06:10:29;;;;;;;10.30;9.33;;;17.30;99.90;;;;;;5082729;28;20245;-81
2022/05/10 06:12:59;;;;;;;12.17;11.17;;;17.20;99.90;;;;;;5080525;28;20284;-81
2022/05/10 06:15:26;;;;;;;11.50;10.50;;;17.30;99.90;;;;;;5080461;28;20787;-81
2022/05/10 06:17:57;;;;;;;12.50;11.37;;;17.30;99.90;;;;;;5079699;28;20203;-81
2022/05/10 06:20:26;;;;;;;12.27;11.17;;;17.30;99.90;;;;;;5081842;28;20223;-81
2022/05/10 06:22:53;;;;;;;13.90;12.80;;;17.30;99.90;;;;;;5080021;28;20187;-81
2022/05/10 06:25:23;;;;;;;13.67;12.67;;;17.40;99.90;;;;;;5080172;28;20246;-81
2022/05/10 06:27:55;;;;;;;12.70;11.50;;;17.40;99.90;;;;;;5078100;28;20206;-81
2022/05/10 06:30:23;;;;;;;12.27;11.00;;;17.50;99.90;;;;;;5081769;28;20286;-82
2022/05/10 06:32:51;;;;;;;13.57;12.57;;;17.60;99.90;;;;;;5085831;28;20253;-81
2022/05/10 06:35:19;;;;;;;13.63;12.63;;;17.80;99.90;;;;;;5083287;28;20234;-81
2022/05/10 06:40:32;;;;;;;10.53;9.63;;;17.90;99.90;;;;;;5068537;28;20353;-81
2022/05/10 06:43:01;;;;;;;10.60;9.60;;;18.20;99.90;;;;;;5076203;28;20289;-81
2022/05/10 06:45:32;;;;;;;10.50;9.60;;;18.40;99.90;;;;;;5071237;28;20234;-81
2022/05/10 06:48:00;;;;;;;11.10;10.10;;;18.60;99.90;;;;;;5079668;28;20205;-82
2022/05/10 06:50:28;;;;;;;10.53;9.67;;;18.70;99.90;;;;;;5081512;28;20191;-81
2022/05/10 06:52:57;;;;;;;8.50;7.70;;;18.80;99.90;;;;;;5079245;28;20226;-82
2022/05/10 06:55:25;;;;;;;10.47;9.47;;;19.20;99.90;;;;;;5098152;28;20702;-82
2022/05/10 06:57:53;;;;;;;12.73;11.73;;;19.70;99.90;;;;;;5080307;28;20225;-82
2022/05/10 07:00:22;;;;;;;14.23;13.13;;;19.80;99.90;;;;;;5080426;28;20292;-82
2022/05/10 07:02:49;;;;;;;13.83;12.83;;;20.00;99.90;;;;;;5077252;28;20196;-82
2022/05/10 07:05:19;;;;;;;11.27;8.93;;;20.30;99.90;;;;;;5085430;28;20229;-82
2022/05/10 07:07:46;;;;;;;9.93;8.93;;;20.40;99.90;;;;;;5078597;28;20216;-82
2022/05/10 07:10:17;;;;;;;8.50;7.70;;;20.80;99.90;;;;;;5075754;28;20208;-81
2022/05/10 07:12:45;;;;;;;12.03;10.90;;;21.20;99.90;;;;;;5078132;28;20289;-82
2022/05/10 07:15:16;;;;;;;10.30;9.33;;;21.70;99.90;;;;;;5075300;28;20309;-82
2022/05/10 07:17:47;;;;;;;13.00;11.90;;;22.10;99.90;;;;;;5081372;28;20590;-82
2022/05/10 07:20:17;;;;;;;13.87;12.87;;;22.40;99.90;;;;;;5079312;28;20641;-81
2022/05/10 07:22:44;;;;;;;10.20;7.53;;;22.60;99.90;;;;;;5080623;28;20241;-83
2022/05/10 07:25:13;;;;;;;7.60;6.90;;;22.70;99.90;;;;;;5080170;28;20231;-82
2022/05/10 07:27:41;;;;;;;11.53;10.50;;;22.90;99.90;;;;;;5074716;28;20284;-82
2022/05/10 07:30:09;;;;;;;11.60;10.50;;;23.10;99.90;;;;;;5082531;28;20248;-82
2022/05/10 07:32:36;;;;;;;11.53;10.50;;;23.30;99.90;;;;;;5065532;28;20210;-82
2022/05/10 07:35:05;;;;;;;11.47;10.47;;;23.50;99.90;;;;;;5071707;28;20207;-82
2022/05/10 07:37:34;;;;;;;9.70;8.90;;;23.80;99.90;;;;;;5079645;28;20293;-82
2022/05/10 07:40:01;;;;;;;10.77;9.87;;;24.00;99.90;;;;;;5084345;28;20579;-82
2022/05/10 07:42:29;;;;;;;9.83;9.03;;;24.00;99.90;;;;;;5078718;28;20222;-83
2022/05/10 07:44:56;;;;;;;7.93;7.23;;;24.00;99.90;;;;;;5076462;28;20597;-82
2022/05/10 07:47:23;;;;;;;11.30;10.40;;;24.20;99.90;;;;;;5073672;28;20220;-82
2022/05/10 07:49:50;;;;;;;10.23;9.53;;;24.40;99.90;;;;;;5082676;28;20236;-82
2022/05/10 07:52:19;;;;;;;10.47;9.67;;;24.40;99.90;;;;;;5065594;28;20203;-82
2022/05/10 07:54:46;;;;;;;10.53;9.63;;;24.50;99.90;;;;;;5078320;28;20233;-82
2022/05/10 07:57:13;;;;;;;10.97;10.17;;;24.50;99.90;;;;;;5071981;28;20207;-82
2022/05/10 07:59:40;;;;;;;10.93;10.13;;;24.30;99.90;;;;;;5079367;28;20227;-82
2022/05/10 08:02:08;;;;;;;10.87;10.00;;;24.40;99.90;;;;;;5078733;28;20285;-83
2022/05/10 08:04:35;;;;;;;11.67;10.57;;;24.60;99.90;;;;;;5079869;28;20305;-81
2022/05/10 08:07:03;;;;;;;10.40;9.60;;;24.60;99.90;;;;;;5080411;28;20659;-82
2022/05/10 08:09:31;;;;;;;9.93;9.23;;;24.50;99.90;;;;;;5068911;28;20210;-81
2022/05/10 08:11:58;;;;;;;11.03;10.13;;;24.80;99.90;;;;;;5075718;28;20686;-83
2022/05/10 08:14:26;;;;;;;10.30;9.50;;;25.00;99.90;;;;;;5080282;28;20246;-81
2022/05/10 08:16:53;;;;;;;10.30;9.50;;;25.30;99.90;;;;;;5079156;28;20249;-82
2022/05/10 08:19:20;;;;;;;13.53;12.33;;;25.50;99.90;;;;;;5079653;28;20236;-82
2022/05/10 08:21:47;;;;;;;14.10;12.97;;;25.50;99.90;;;;;;5078223;28;20286;-82
2022/05/10 08:24:14;;;;;;;11.17;10.30;;;25.70;99.90;;;;;;5078238;28;20267;-82
2022/05/10 08:26:42;;;;;;;9.87;8.27;;;25.70;99.90;;;;;;5078477;28;20203;-82
2022/05/10 08:29:09;;;;;;;11.47;10.67;;;26.00;99.90;;;;;;5083063;28;20197;-82
2022/05/10 08:31:36;;;;;;;8.23;7.57;;;26.10;99.90;;;;;;5076029;28;20663;-81
2022/05/10 08:34:03;;;;;;;11.60;10.80;;;26.20;99.90;;;;;;5079274;28;20276;-81
2022/05/10 08:36:30;;;;;;;11.63;10.63;;;26.40;99.90;;;;;;5084609;28;20217;-82
2022/05/10 08:38:57;;;;;;;6.73;6.10;;;26.20;99.90;;;;;;5082729;28;20772;-82
2022/05/10 08:41:30;;;;;;;8.07;7.30;;;26.40;99.90;;;;;;5083749;28;20285;-83
2022/05/10 08:44:02;;;;;;;11.07;10.37;;;26.20;99.90;;;;;;5082130;28;20206;-82
2022/05/10 08:46:33;;;;;;;11.43;10.47;;;26.50;99.90;;;;;;5083186;28;20197;-82
2022/05/10 08:49:11;;;;;;;11.00;10.10;;;26.80;99.90;;;;;;5081087;28;20569;-81
2022/05/10 08:51:38;;;;;;;8.70;8.00;;;26.80;99.90;;;;;;5077289;28;20198;-83
2022/05/10 08:54:05;;;;;;;8.33;5.70;;;27.10;99.90;;;;;;5083865;28;20232;-81
2022/05/10 08:56:39;;;;;;;6.13;5.63;;;27.30;99.90;;;;;;5072094;28;20198;-83
2022/05/10 08:59:16;;;;;;;6.47;5.87;;;27.40;99.90;;;;;;5069626;28;20734;-82
2022/05/10 09:01:50;;;;;;;8.47;7.67;;;27.40;99.90;;;;;;5081909;28;20200;-82
2022/05/10 09:04:39;;;;;;;6.93;6.33;;;27.40;99.90;;;;;;5074219;28;20227;-83
2022/05/10 09:07:18;;;;;;;6.90;6.00;;;27.60;99.90;;;;;;5085138;28;20200;-82
2022/05/10 09:09:55;;;;;;;5.77;5.17;;;27.50;99.90;;;;;;5079914;28;20193;-82
2022/05/10 09:12:24;;;;;;;10.73;5.87;;;27.80;99.90;;;;;;5075586;28;20669;-82
2022/05/10 09:14:56;;;;;;;7.37;5.50;;;28.10;99.90;;;;;;5081176;28;20237;-82
2022/05/10 09:17:26;;;;;;;6.43;5.43;;;28.00;99.90;;;;;;5084541;28;20197;-81
2022/05/10 09:19:52;;;;;;;6.70;5.50;;;27.70;99.90;;;;;;5080074;28;20202;-81
2022/05/10 09:22:28;;;;;;;5.90;5.37;;;27.60;99.90;;;;;;5076314;28;20659;-81
2022/05/10 09:24:56;;;;;;;5.50;5.00;;;28.10;99.90;;;;;;5080641;28;20213;-81
2022/05/10 09:27:32;;;;;;;5.97;5.13;;;28.20;99.90;;;;;;5078848;28;20216;-81
2022/05/10 09:30:01;;;;;;;6.77;6.07;;;28.20;99.90;;;;;;5078065;28;20206;-82
2022/05/10 09:35:18;;;;;;;7.97;7.27;;;28.50;99.90;;;;;;5081446;28;20715;-82
2022/05/10 09:37:50;;;;;;;7.50;6.90;;;28.60;99.90;;;;;;5082368;28;20628;-82
2022/05/10 09:40:32;;;;;;;8.80;7.87;;;28.60;99.90;;;;;;5081064;28;20272;-81
2022/05/10 09:43:17;;;;;;;8.13;7.33;;;28.80;99.90;;;;;;5075201;28;20202;-82
2022/05/10 09:46:03;;;;;;;7.80;7.10;;;28.70;99.70;;;;;;5077853;28;20248;-82
2022/05/10 09:48:30;;;;;;;8.33;7.43;;;28.60;99.90;;;;;;5083217;28;20198;-82
2022/05/10 09:51:18;;;;;;;7.07;6.10;;;28.50;99.40;;;;;;5080580;28;20292;-81
2022/05/10 09:53:45;;;;;;;6.83;5.47;;;28.40;98.40;;;;;;5070038;28;20201;-81
2022/05/10 09:56:30;;;;;;;5.33;4.83;;;28.30;99.70;;;;;;5083898;28;20622;-82
2022/05/10 09:59:00;;;;;;;6.00;5.50;;;28.50;98.40;;;;;;5081469;28;20595;-81
2022/05/10 10:01:41;;;;;;;7.50;6.80;;;28.60;98.90;;;;;;5070901;28;20199;-82
2022/05/10 10:04:18;;;;;;;9.37;8.53;;;28.70;97.70;;;;;;5077047;28;20230;-82
2022/05/10 10:06:45;;;;;;;10.50;9.70;;;28.70;97.10;;;;;;5075101;28;20193;-82
2022/05/10 10:09:30;;;;;;;9.00;8.30;;;28.50;97.60;;;;;;5073569;28;20205;-82
2022/05/10 10:11:58;;;;;;;8.30;7.70;;;28.40;98.00;;;;;;5080137;28;20198;-83
2022/05/10 10:14:43;;;;;;;9.13;8.43;;;28.40;97.40;;;;;;5080939;28;20217;-82
2022/05/10 10:17:22;;;;;;;9.07;8.33;;;28.20;97.10;;;;;;5097697;28;20229;-83
2022/05/10 10:19:53;;;;;;;7.47;6.87;;;28.40;96.50;;;;;;5080498;28;20229;-82
2022/05/10 10:22:28;;;;;;;9.40;8.73;;;28.30;97.30;;;;;;5081489;28;20194;-83
2022/05/10 10:25:01;;;;;;;8.80;8.20;;;28.30;95.50;;;;;;5081806;28;20209;-83
2022/05/10 10:27:34;;;;;;;8.67;7.97;;;28.20;96.80;;;;;;5075997;28;20593;-82
2022/05/10 10:30:07;;;;;;;8.30;7.70;;;28.30;95.00;;;;;;5080334;28;20579;-82
2022/05/10 10:32:41;;;;;;;8.20;7.60;;;28.30;94.90;;;;;;5073883;28;20226;-83
2022/05/10 10:35:15;;;;;;;8.83;8.13;;;28.20;94.90;;;;;;5083271;28;20251;-83
2022/05/10 10:37:47;;;;;;;8.30;7.70;;;28.30;94.00;;;;;;5071260;28;20268;-82
2022/05/10 10:40:27;;;;;;;8.33;7.73;;;28.10;94.00;;;;;;5076617;28;20671;-82
2022/05/10 10:42:58;;;;;;;8.63;7.93;;;27.90;94.40;;;;;;5073113;28;20249;-82
2022/05/10 10:45:35;;;;;;;8.60;7.90;;;27.70;92.70;;;;;;5080054;28;20213;-82
2022/05/10 10:48:20;;;;;;;8.20;7.70;;;27.60;93.80;;;;;;5075648;28;20659;-82
2022/05/10 10:50:47;;;;;;;8.23;7.70;;;27.60;92.50;;;;;;5089634;28;20226;-82
2022/05/10 10:53:15;;;;;;;5.90;5.50;;;27.50;93.00;;;;;;5080649;28;20198;-82
2022/05/10 10:55:57;;;;;;;4.27;3.87;;;27.30;93.40;;;;;;5082202;28;20223;-82
2022/05/10 10:58:35;;;;;;;5.30;4.73;;;27.20;92.50;;;;;;5079634;28;20667;-81
2022/05/10 11:01:18;;;;;;;4.23;3.87;;;26.70;91.90;;;;;;5074134;28;20260;-82
2022/05/10 11:04:00;;;;;;;4.60;3.57;;;26.60;92.60;;;;;;5081169;28;20222;-82
2022/05/10 11:06:28;;;;;;;4.37;3.97;;;27.00;94.10;;;;;;5080576;28;20198;-82
2022/05/10 11:09:07;;;;;;;4.33;3.70;;;27.20;94.00;;;;;;5077726;28;20233;-82
2022/05/10 11:11:47;;;;;;;3.77;3.47;;;27.40;94.50;;;;;;5075486;28;20194;-81
2022/05/10 11:14:45;;;;;;;4.13;3.73;;;27.60;93.70;;;;;;5076968;28;20221;-82
2022/05/10 11:17:21;;;;;;;3.97;3.50;;;27.60;92.30;;;;;;5079976;28;20201;-83
2022/05/10 11:20:06;;;;;;;5.57;4.07;;;27.50;92.80;;;;;;5079258;28;20225;-81
2022/05/10 11:22:38;;;;;;;3.80;3.50;;;27.50;91.60;;;;;;5081422;28;20285;-82
2022/05/10 11:25:39;;;;;;;4.03;3.70;;;27.50;92.20;;;;;;5073900;28;20308;-81
2022/05/10 11:28:20;;;;;;;3.90;3.50;;;27.50;90.30;;;;;;5079318;28;20216;-82
2022/05/10 11:30:56;;;;;;;3.57;3.27;;;27.60;91.00;;;;;;5069257;28;20194;-81
2022/05/10 11:33:31;;;;;;;3.83;3.53;;;27.40;90.10;;;;;;5080495;28;20212;-80
2022/05/10 11:36:06;;;;;;;5.43;3.57;;;27.30;90.20;;;;;;5078421;28;20225;-80
2022/05/10 11:39:00;;;;;;;4.47;3.47;;;27.30;91.10;;;;;;5066120;28;20224;-78
2022/05/10 11:41:33;;;;;;;4.03;3.73;;;27.00;91.00;;;;;;5079482;28;20647;-79
2022/05/10 11:44:48;;;;;;;5.27;4.87;;;26.80;91.60;;;;;;5080704;28;20245;-79
2022/05/10 11:47:45;;;;;;;5.80;5.40;;;26.60;91.90;;;;;;5078349;28;20206;-80
2022/05/10 11:51:38;;;;;;;6.33;5.83;;;26.70;92.20;;;;;;5080267;28;20247;-78
2022/05/10 11:53:51;;;;;;;7.90;7.40;;;26.40;91.30;;;;;;5071790;28;20190;-79
2022/05/10 11:56:18;;;;;;;4.10;3.80;;;26.60;91.80;;;;;;5079568;28;20218;-79
2022/05/10 11:58:45;;;;;;;3.47;3.17;;;26.70;92.30;;;;;;5074457;28;20194;-80
2022/05/10 12:01:14;;;;;;;3.43;3.13;;;26.90;91.20;;;;;;5080288;28;20209;-77
2022/05/10 12:04:05;;;;;;;3.53;3.23;;;26.90;91.00;;;;;;5074709;28;20814;-80
2022/05/10 12:06:43;;;;;;;3.50;3.20;;;27.10;90.70;;;;;;5080364;28;20190;-79
2022/05/10 12:09:59;;;;;;;3.63;3.33;;;27.20;90.20;;;;;;5082589;28;20215;-79
2022/05/10 12:12:57;;;;;;;3.53;2.97;;;27.10;90.30;;;;;;5082635;28;20708;-78
2022/05/10 12:21:53;;;;;;;4.63;3.30;;;27.20;88.90;;;;;;5084208;28;20208;-80
2022/05/10 12:24:32;;;;;;;3.37;3.07;;;27.20;89.20;;;;;;5083858;28;20714;-80
2022/05/10 12:27:21;;;;;;;5.47;3.03;;;27.00;88.60;;;;;;5082276;28;20195;-78
2022/05/10 12:30:32;;;;;;;4.13;2.80;;;27.00;88.00;;;;;;5075367;28;20281;-80
2022/05/10 12:33:19;;;;;;;3.40;3.10;;;26.90;90.70;;;;;;5082238;28;20202;-79
2022/05/10 12:36:11;;;;;;;3.60;3.30;;;26.80;86.60;;;;;;5074997;28;20241;-80
2022/05/10 12:38:48;;;;;;;3.20;2.90;;;26.80;89.90;;;;;;5055176;28;20617;-79
2022/05/10 12:41:42;;;;;;;3.60;3.30;;;26.90;90.40;;;;;;5079913;28;20245;-80
2022/05/10 12:44:39;;;;;;;3.00;2.80;;;27.10;91.40;;;;;;5067235;28;20223;-80
2022/05/10 12:47:32;;;;;;;3.40;3.10;;;27.20;91.30;;;;;;5094739;28;20186;-80
2022/05/10 12:50:08;;;;;;;3.40;3.10;;;27.30;90.80;;;;;;5080005;28;20204;-78
2022/05/10 12:52:43;;;;;;;3.67;3.37;;;27.40;90.80;;;;;;5077040;28;20210;-79
2022/05/10 12:55:16;;;;;;;3.60;3.30;;;27.50;90.70;;;;;;5081607;28;20214;-80
2022/05/10 12:57:47;;;;;;;4.63;3.43;;;27.60;90.80;;;;;;5074792;28;20205;-80
2022/05/10 13:00:22;;;;;;;3.60;3.30;;;27.50;90.20;;;;;;5081985;28;20222;-80
2022/05/10 13:02:53;;;;;;;3.43;3.20;;;27.50;90.90;;;;;;5075377;28;20214;-80
2022/05/10 13:05:42;;;;;;;4.00;3.60;;;27.40;90.10;;;;;;5081600;28;20222;-80
2022/05/10 13:08:50;;;;;;;3.60;3.30;;;27.30;90.30;;;;;;5078217;28;20202;-79
2022/05/10 13:11:19;;;;;;;4.07;3.67;;;27.20;91.30;;;;;;5079574;28;20585;-78
2022/05/10 13:13:47;;;;;;;3.80;3.50;;;27.00;91.80;;;;;;5084642;28;20584;-79